sensor_id;sensor_type;location;lat;lon;timestamp;temperature;humidity
13389;DHT22;6764;53.250;10.410;2023-01-09T00:00:13;7.20;99.90
13389;DHT22;6764;53.250;10.410;2023-01-09T00:02:39;7.20;99.90
13389;DHT22;6764;53.250;10.410;2023-01-09T00:05:06;7.20;99.90
13389;DHT22;6764;53.250;10.410;2023-01-09T00:07:32;7.20;99.90
13389;DHT22;6764;53.250;10.410;2023-01-09T00:09:58;7.30;99.90
13389;DHT22;6764;53.250;10.410;2023-01-09T00:12:24;7.30;99.90
13389;DHT22;6764;53.250;10.410;2023-01-09T00:14:49;7.40;99.90
13389;DHT22;6764;53.250;10.410;2023-01-09T00:17:15;7.40;99.90
13389;DHT22;6764;53.250;10.410;2023-01-09T00:19:40;7.40;99.90
13389;DHT22;6764;53.250;10.410;2023-01-09T00:22:06;7.40;99.90
13389;DHT22;6764;53.250;10.410;2023-01-09T00:24:36;7.40;99.90
13389;DHT22;6764;53.250;10.410;2023-01-09T00:27:02;7.40;99.90
13389;DHT22;6764;53.250;10.410;2023-01-09T00:29:28;7.40;99.90
13389;DHT22;6764;53.250;10.410;2023-01-09T00:31:53;7.40;99.90
13389;DHT22;6764;53.250;10.410;2023-01-09T00:34:19;7.50;99.90
13389;DHT22;6764;53.250;10.410;2023-01-09T00:36:44;7.50;99.90
13389;DHT22;6764;53.250;10.410;2023-01-09T00:39:10;7.50;99.90
13389;DHT22;6764;53.250;10.410;2023-01-09T00:41:45;7.50;99.90
13389;DHT22;6764;53.250;10.410;2023-01-09T00:44:18;7.60;99.90
13389;DHT22;6764;53.250;10.410;2023-01-09T00:46:49;7.60;99.90
13389;DHT22;6764;53.250;10.410;2023-01-09T00:49:16;7.70;99.90
13389;DHT22;6764;53.250;10.410;2023-01-09T00:51:42;7.70;99.90
13389;DHT22;6764;53.250;10.410;2023-01-09T00:54:12;7.60;99.90
13389;DHT22;6764;53.250;10.410;2023-01-09T00:56:39;7.60;99.90
13389;DHT22;6764;53.250;10.410;2023-01-09T00:59:06;7.60;99.90
13389;DHT22;6764;53.250;10.410;2023-01-09T01:01:32;7.50;99.90
13389;DHT22;6764;53.250;10.410;2023-01-09T01:03:57;7.50;99.90
13389;DHT22;6764;53.250;10.410;2023-01-09T01:06:23;7.40;99.90
13389;DHT22;6764;53.250;10.410;2023-01-09T01:09:08;7.40;99.90
13389;DHT22;6764;53.250;10.410;2023-01-09T01:11:33;7.40;99.90
13389;DHT22;6764;53.250;10.410;2023-01-09T01:14:00;7.40;99.90
13389;DHT22;6764;53.250;10.410;2023-01-09T01:16:26;7.30;99.90
13389;DHT22;6764;53.250;10.410;2023-01-09T01:18:51;7.30;99.90
13389;DHT22;6764;53.250;10.410;2023-01-09T01:21:17;7.30;99.90
13389;DHT22;6764;53.250;10.410;2023-01-09T01:23:43;7.20;99.90
13389;DHT22;6764;53.250;10.410;2023-01-09T01:26:11;7.20;99.90
13389;DHT22;6764;53.250;10.410;2023-01-09T01:28:38;7.20;99.90
13389;DHT22;6764;53.250;10.410;2023-01-09T01:31:04;7.20;99.90
13389;DHT22;6764;53.250;10.410;2023-01-09T01:33:30;7.20;99.90
13389;DHT22;6764;53.250;10.410;2023-01-09T01:36:04;7.20;99.90
13389;DHT22;6764;53.250;10.410;2023-01-09T01:38:31;7.20;99.90
13389;DHT22;6764;53.250;10.410;2023-01-09T01:40:58;7.20;99.90
13389;DHT22;6764;53.250;10.410;2023-01-09T01:43:24;7.20;99.90
13389;DHT22;6764;53.250;10.410;2023-01-09T01:45:49;7.20;99.90
13389;DHT22;6764;53.250;10.410;2023-01-09T01:48:25;7.30;99.90
13389;DHT22;6764;53.250;10.410;2023-01-09T01:51:00;7.30;99.90
13389;DHT22;6764;53.250;10.410;2023-01-09T01:53:39;7.30;99.90
13389;DHT22;6764;53.250;10.410;2023-01-09T01:56:25;7.30;99.90
13389;DHT22;6764;53.250;10.410;2023-01-09T01:59:02;7.30;99.90
13389;DHT22;6764;53.250;10.410;2023-01-09T02:01:30;7.30;99.90
13389;DHT22;6764;53.250;10.410;2023-01-09T02:03:58;7.30;99.90
13389;DHT22;6764;53.250;10.410;2023-01-09T02:06:26;7.30;99.90
13389;DHT22;6764;53.250;10.410;2023-01-09T02:08:53;7.20;99.90
13389;DHT22;6764;53.250;10.410;2023-01-09T02:11:20;7.30;99.90
13389;DHT22;6764;53.250;10.410;2023-01-09T02:13:46;7.30;99.90
13389;DHT22;6764;53.250;10.410;2023-01-09T02:22:11;7.20;99.90
13389;DHT22;6764;53.250;10.410;2023-01-09T02:41:13;7.40;99.90
13389;DHT22;6764;53.250;10.410;2023-01-09T02:43:41;7.40;99.90
13389;DHT22;6764;53.250;10.410;2023-01-09T02:46:18;7.50;99.90
13389;DHT22;6764;53.250;10.410;2023-01-09T02:48:45;7.50;99.90
13389;DHT22;6764;53.250;10.410;2023-01-09T02:51:23;7.50;99.90
13389;DHT22;6764;53.250;10.410;2023-01-09T03:00:07;7.60;99.90
13389;DHT22;6764;53.250;10.410;2023-01-09T03:05:06;7.50;99.90
13389;DHT22;6764;53.250;10.410;2023-01-09T03:07:45;7.50;99.90
13389;DHT22;6764;53.250;10.410;2023-01-09T03:12:52;7.50;99.90
13389;DHT22;6764;53.250;10.410;2023-01-09T03:15:22;7.50;99.90
13389;DHT22;6764;53.250;10.410;2023-01-09T03:17:49;7.50;99.90
13389;DHT22;6764;53.250;10.410;2023-01-09T03:20:20;7.50;99.90
13389;DHT22;6764;53.250;10.410;2023-01-09T03:22:59;7.50;99.90
13389;DHT22;6764;53.250;10.410;2023-01-09T03:25:29;7.50;99.90
13389;DHT22;6764;53.250;10.410;2023-01-09T03:27:58;7.50;99.90
13389;DHT22;6764;53.250;10.410;2023-01-09T03:30:25;7.50;99.90
13389;DHT22;6764;53.250;10.410;2023-01-09T03:32:52;7.60;99.90
13389;DHT22;6764;53.250;10.410;2023-01-09T03:35:18;7.50;99.90
13389;DHT22;6764;53.250;10.410;2023-01-09T03:37:43;7.60;99.90
13389;DHT22;6764;53.250;10.410;2023-01-09T03:40:09;7.60;99.90
13389;DHT22;6764;53.250;10.410;2023-01-09T03:42:35;7.60;99.90
13389;DHT22;6764;53.250;10.410;2023-01-09T03:45:00;7.60;99.90
13389;DHT22;6764;53.250;10.410;2023-01-09T03:47:26;7.60;99.90
13389;DHT22;6764;53.250;10.410;2023-01-09T03:49:52;7.60;99.90
13389;DHT22;6764;53.250;10.410;2023-01-09T03:52:17;7.60;99.90
13389;DHT22;6764;53.250;10.410;2023-01-09T03:54:43;7.60;99.90
13389;DHT22;6764;53.250;10.410;2023-01-09T03:57:08;7.60;99.90
13389;DHT22;6764;53.250;10.410;2023-01-09T03:59:34;7.70;99.90
13389;DHT22;6764;53.250;10.410;2023-01-09T04:02:00;7.70;99.90
13389;DHT22;6764;53.250;10.410;2023-01-09T04:04:25;7.70;99.90
13389;DHT22;6764;53.250;10.410;2023-01-09T04:06:51;7.70;99.90
13389;DHT22;6764;53.250;10.410;2023-01-09T04:09:16;7.70;99.90
13389;DHT22;6764;53.250;10.410;2023-01-09T04:11:42;7.70;99.90
13389;DHT22;6764;53.250;10.410;2023-01-09T04:14:07;7.70;99.90
13389;DHT22;6764;53.250;10.410;2023-01-09T04:16:33;7.70;99.90
13389;DHT22;6764;53.250;10.410;2023-01-09T04:18:59;7.70;99.90
13389;DHT22;6764;53.250;10.410;2023-01-09T04:21:25;7.70;99.90
13389;DHT22;6764;53.250;10.410;2023-01-09T04:23:50;7.70;99.90
13389;DHT22;6764;53.250;10.410;2023-01-09T04:26:16;7.70;99.90
13389;DHT22;6764;53.250;10.410;2023-01-09T04:28:42;7.80;99.90
13389;DHT22;6764;53.250;10.410;2023-01-09T04:31:08;7.80;99.90
13389;DHT22;6764;53.250;10.410;2023-01-09T04:33:33;7.80;99.90
13389;DHT22;6764;53.250;10.410;2023-01-09T04:35:59;7.80;99.90
13389;DHT22;6764;53.250;10.410;2023-01-09T04:38:25;7.90;99.90
13389;DHT22;6764;53.250;10.410;2023-01-09T04:40:52;7.90;99.90
13389;DHT22;6764;53.250;10.410;2023-01-09T04:43:17;7.90;99.90
13389;DHT22;6764;53.250;10.410;2023-01-09T04:45:43;7.90;99.90
13389;DHT22;6764;53.250;10.410;2023-01-09T04:48:09;7.90;99.90
13389;DHT22;6764;53.250;10.410;2023-01-09T04:50:35;7.90;99.90
13389;DHT22;6764;53.250;10.410;2023-01-09T04:53:00;7.90;99.90
13389;DHT22;6764;53.250;10.410;2023-01-09T04:55:26;7.90;99.90
13389;DHT22;6764;53.250;10.410;2023-01-09T04:57:51;7.90;99.90
13389;DHT22;6764;53.250;10.410;2023-01-09T05:00:17;7.90;99.90
13389;DHT22;6764;53.250;10.410;2023-01-09T05:02:43;8.00;99.90
13389;DHT22;6764;53.250;10.410;2023-01-09T05:05:10;7.90;99.90
13389;DHT22;6764;53.250;10.410;2023-01-09T05:07:36;7.90;99.90
13389;DHT22;6764;53.250;10.410;2023-01-09T05:10:03;7.90;99.90
13389;DHT22;6764;53.250;10.410;2023-01-09T05:12:29;7.90;99.90
13389;DHT22;6764;53.250;10.410;2023-01-09T05:14:54;8.00;99.90
13389;DHT22;6764;53.250;10.410;2023-01-09T05:17:22;8.00;99.90
13389;DHT22;6764;53.250;10.410;2023-01-09T05:19:48;8.00;99.90
13389;DHT22;6764;53.250;10.410;2023-01-09T05:22:13;8.10;99.90
13389;DHT22;6764;53.250;10.410;2023-01-09T05:24:39;8.10;99.90
13389;DHT22;6764;53.250;10.410;2023-01-09T05:27:05;8.10;99.90
13389;DHT22;6764;53.250;10.410;2023-01-09T05:29:31;8.10;99.90
13389;DHT22;6764;53.250;10.410;2023-01-09T05:31:56;8.10;99.90
13389;DHT22;6764;53.250;10.410;2023-01-09T05:34:22;8.10;99.90
13389;DHT22;6764;53.250;10.410;2023-01-09T05:36:48;8.10;99.90
13389;DHT22;6764;53.250;10.410;2023-01-09T05:39:13;8.20;99.90
13389;DHT22;6764;53.250;10.410;2023-01-09T05:41:39;8.20;99.90
13389;DHT22;6764;53.250;10.410;2023-01-09T05:44:05;8.20;99.90
13389;DHT22;6764;53.250;10.410;2023-01-09T05:46:31;8.20;99.90
13389;DHT22;6764;53.250;10.410;2023-01-09T05:48:57;8.20;99.90
13389;DHT22;6764;53.250;10.410;2023-01-09T05:51:22;8.20;99.90
13389;DHT22;6764;53.250;10.410;2023-01-09T05:53:48;8.20;99.90
13389;DHT22;6764;53.250;10.410;2023-01-09T05:56:14;8.20;99.90
13389;DHT22;6764;53.250;10.410;2023-01-09T05:58:40;8.10;99.90
13389;DHT22;6764;53.250;10.410;2023-01-09T06:01:06;8.20;99.90
13389;DHT22;6764;53.250;10.410;2023-01-09T06:03:32;8.20;99.90
13389;DHT22;6764;53.250;10.410;2023-01-09T06:05:57;8.10;99.90
13389;DHT22;6764;53.250;10.410;2023-01-09T06:08:23;8.10;99.90
13389;DHT22;6764;53.250;10.410;2023-01-09T06:10:49;8.00;99.90
13389;DHT22;6764;53.250;10.410;2023-01-09T06:13:14;8.00;99.90
13389;DHT22;6764;53.250;10.410;2023-01-09T06:15:40;8.00;99.90
13389;DHT22;6764;53.250;10.410;2023-01-09T06:18:06;8.00;99.90
13389;DHT22;6764;53.250;10.410;2023-01-09T06:20:31;8.00;99.90
13389;DHT22;6764;53.250;10.410;2023-01-09T06:22:57;8.00;99.90
13389;DHT22;6764;53.250;10.410;2023-01-09T06:25:23;8.00;99.90
13389;DHT22;6764;53.250;10.410;2023-01-09T06:27:48;8.10;99.90
13389;DHT22;6764;53.250;10.410;2023-01-09T06:30:17;8.10;99.90
13389;DHT22;6764;53.250;10.410;2023-01-09T06:32:42;8.10;99.90
13389;DHT22;6764;53.250;10.410;2023-01-09T06:35:08;8.10;99.90
13389;DHT22;6764;53.250;10.410;2023-01-09T06:37:34;8.10;99.90
13389;DHT22;6764;53.250;10.410;2023-01-09T06:39:59;8.10;99.90
13389;DHT22;6764;53.250;10.410;2023-01-09T06:42:25;8.10;99.90
13389;DHT22;6764;53.250;10.410;2023-01-09T06:44:51;8.10;99.90
13389;DHT22;6764;53.250;10.410;2023-01-09T06:47:17;8.10;99.90
13389;DHT22;6764;53.250;10.410;2023-01-09T06:49:42;8.10;99.90
13389;DHT22;6764;53.250;10.410;2023-01-09T06:52:08;8.20;99.90
13389;DHT22;6764;53.250;10.410;2023-01-09T06:54:34;8.30;99.90
13389;DHT22;6764;53.250;10.410;2023-01-09T06:57:00;8.30;99.90
13389;DHT22;6764;53.250;10.410;2023-01-09T06:59:25;8.30;99.90
13389;DHT22;6764;53.250;10.410;2023-01-09T07:01:51;8.30;99.90
13389;DHT22;6764;53.250;10.410;2023-01-09T07:04:17;8.30;99.90
13389;DHT22;6764;53.250;10.410;2023-01-09T07:06:46;8.40;99.90
13389;DHT22;6764;53.250;10.410;2023-01-09T07:09:11;8.40;99.90
13389;DHT22;6764;53.250;10.410;2023-01-09T07:11:38;8.40;99.90
13389;DHT22;6764;53.250;10.410;2023-01-09T07:14:04;8.40;99.90
13389;DHT22;6764;53.250;10.410;2023-01-09T07:16:29;8.40;99.90
13389;DHT22;6764;53.250;10.410;2023-01-09T07:18:55;8.40;99.90
13389;DHT22;6764;53.250;10.410;2023-01-09T07:21:21;8.50;99.90
13389;DHT22;6764;53.250;10.410;2023-01-09T07:23:46;8.50;99.90
13389;DHT22;6764;53.250;10.410;2023-01-09T07:26:12;8.60;99.90
13389;DHT22;6764;53.250;10.410;2023-01-09T07:28:38;8.60;99.90
13389;DHT22;6764;53.250;10.410;2023-01-09T07:31:03;8.70;99.90
13389;DHT22;6764;53.250;10.410;2023-01-09T07:33:32;8.70;99.90
13389;DHT22;6764;53.250;10.410;2023-01-09T07:35:58;8.60;99.90
13389;DHT22;6764;53.250;10.410;2023-01-09T07:38:24;8.50;99.90
13389;DHT22;6764;53.250;10.410;2023-01-09T07:40:49;8.50;99.90
13389;DHT22;6764;53.250;10.410;2023-01-09T07:43:15;8.50;99.90
13389;DHT22;6764;53.250;10.410;2023-01-09T07:45:41;8.40;99.90
13389;DHT22;6764;53.250;10.410;2023-01-09T07:48:06;8.40;99.90
13389;DHT22;6764;53.250;10.410;2023-01-09T07:50:32;8.50;99.90
13389;DHT22;6764;53.250;10.410;2023-01-09T07:52:57;8.40;99.90
13389;DHT22;6764;53.250;10.410;2023-01-09T07:55:23;8.40;99.90
13389;DHT22;6764;53.250;10.410;2023-01-09T07:57:50;8.30;99.90
13389;DHT22;6764;53.250;10.410;2023-01-09T08:00:17;8.30;99.90
13389;DHT22;6764;53.250;10.410;2023-01-09T08:02:43;8.20;99.90
13389;DHT22;6764;53.250;10.410;2023-01-09T08:05:08;8.20;99.90
13389;DHT22;6764;53.250;10.410;2023-01-09T08:07:39;8.20;99.90
13389;DHT22;6764;53.250;10.410;2023-01-09T08:10:05;8.10;99.90
13389;DHT22;6764;53.250;10.410;2023-01-09T08:12:30;8.20;99.90
13389;DHT22;6764;53.250;10.410;2023-01-09T08:14:56;8.10;99.90
13389;DHT22;6764;53.250;10.410;2023-01-09T08:17:22;8.10;99.90
13389;DHT22;6764;53.250;10.410;2023-01-09T08:19:47;8.00;99.90
13389;DHT22;6764;53.250;10.410;2023-01-09T08:22:13;7.90;99.90
13389;DHT22;6764;53.250;10.410;2023-01-09T08:24:38;7.90;99.90
13389;DHT22;6764;53.250;10.410;2023-01-09T08:27:04;7.90;99.90
13389;DHT22;6764;53.250;10.410;2023-01-09T08:29:29;7.90;99.90
13389;DHT22;6764;53.250;10.410;2023-01-09T08:31:55;7.90;99.90
13389;DHT22;6764;53.250;10.410;2023-01-09T08:34:21;7.90;99.90
13389;DHT22;6764;53.250;10.410;2023-01-09T08:36:47;7.80;99.90
13389;DHT22;6764;53.250;10.410;2023-01-09T08:39:13;7.80;99.90
13389;DHT22;6764;53.250;10.410;2023-01-09T08:41:38;7.80;99.90
13389;DHT22;6764;53.250;10.410;2023-01-09T08:44:22;7.80;99.90
13389;DHT22;6764;53.250;10.410;2023-01-09T08:47:06;7.80;99.90
13389;DHT22;6764;53.250;10.410;2023-01-09T08:49:34;7.70;99.90
13389;DHT22;6764;53.250;10.410;2023-01-09T08:52:00;7.70;99.90
13389;DHT22;6764;53.250;10.410;2023-01-09T08:54:26;7.80;99.90
13389;DHT22;6764;53.250;10.410;2023-01-09T08:56:51;7.80;99.90
13389;DHT22;6764;53.250;10.410;2023-01-09T08:59:17;7.90;99.90
13389;DHT22;6764;53.250;10.410;2023-01-09T09:01:43;7.90;99.90
13389;DHT22;6764;53.250;10.410;2023-01-09T09:04:09;8.00;99.90
13389;DHT22;6764;53.250;10.410;2023-01-09T09:06:35;8.10;99.90
13389;DHT22;6764;53.250;10.410;2023-01-09T09:09:01;8.10;99.90
13389;DHT22;6764;53.250;10.410;2023-01-09T09:11:30;8.20;99.90
13389;DHT22;6764;53.250;10.410;2023-01-09T09:13:56;8.20;99.90
13389;DHT22;6764;53.250;10.410;2023-01-09T09:16:23;8.20;99.90
13389;DHT22;6764;53.250;10.410;2023-01-09T09:18:49;8.20;99.90
13389;DHT22;6764;53.250;10.410;2023-01-09T09:21:15;8.40;99.90
13389;DHT22;6764;53.250;10.410;2023-01-09T09:23:41;8.40;99.90
13389;DHT22;6764;53.250;10.410;2023-01-09T09:26:06;8.50;99.90
13389;DHT22;6764;53.250;10.410;2023-01-09T09:28:32;8.50;99.90
13389;DHT22;6764;53.250;10.410;2023-01-09T09:30:57;8.40;99.90
13389;DHT22;6764;53.250;10.410;2023-01-09T09:33:23;8.40;99.90
13389;DHT22;6764;53.250;10.410;2023-01-09T09:35:49;8.30;99.90
13389;DHT22;6764;53.250;10.410;2023-01-09T09:38:14;8.30;99.90
13389;DHT22;6764;53.250;10.410;2023-01-09T09:41:04;8.30;99.90
13389;DHT22;6764;53.250;10.410;2023-01-09T09:44:14;8.10;99.90
13389;DHT22;6764;53.250;10.410;2023-01-09T09:53:23;8.20;99.90
13389;DHT22;6764;53.250;10.410;2023-01-09T09:55:50;8.40;99.90
13389;DHT22;6764;53.250;10.410;2023-01-09T09:58:19;8.50;99.90
13389;DHT22;6764;53.250;10.410;2023-01-09T10:00:48;8.50;99.90
13389;DHT22;6764;53.250;10.410;2023-01-09T10:06:33;8.50;99.90
13389;DHT22;6764;53.250;10.410;2023-01-09T10:14:48;8.40;99.90
13389;DHT22;6764;53.250;10.410;2023-01-09T10:18:21;8.40;99.90
13389;DHT22;6764;53.250;10.410;2023-01-09T10:20:44;8.50;99.90
13389;DHT22;6764;53.250;10.410;2023-01-09T10:26:03;8.50;99.90
13389;DHT22;6764;53.250;10.410;2023-01-09T10:28:53;8.50;99.90
13389;DHT22;6764;53.250;10.410;2023-01-09T10:37:11;8.40;99.90
13389;DHT22;6764;53.250;10.410;2023-01-09T10:44:54;8.30;99.90
13389;DHT22;6764;53.250;10.410;2023-01-09T10:47:33;8.30;99.90
13389;DHT22;6764;53.250;10.410;2023-01-09T10:50:01;8.30;99.90
13389;DHT22;6764;53.250;10.410;2023-01-09T10:52:39;8.40;99.90
13389;DHT22;6764;53.250;10.410;2023-01-09T10:56:02;8.40;99.90
13389;DHT22;6764;53.250;10.410;2023-01-09T10:58:11;8.50;99.90
13389;DHT22;6764;53.250;10.410;2023-01-09T11:00:38;8.60;99.90
13389;DHT22;6764;53.250;10.410;2023-01-09T11:03:04;8.70;99.90
13389;DHT22;6764;53.250;10.410;2023-01-09T11:05:30;8.70;99.90
13389;DHT22;6764;53.250;10.410;2023-01-09T11:10:54;9.00;99.90
13389;DHT22;6764;53.250;10.410;2023-01-09T11:13:22;9.10;99.90
13389;DHT22;6764;53.250;10.410;2023-01-09T11:18:25;9.30;99.90
13389;DHT22;6764;53.250;10.410;2023-01-09T11:20:51;9.40;99.90
13389;DHT22;6764;53.250;10.410;2023-01-09T11:23:28;9.40;99.90
13389;DHT22;6764;53.250;10.410;2023-01-09T11:25:57;9.50;99.90
13389;DHT22;6764;53.250;10.410;2023-01-09T11:28:23;9.50;99.90
13389;DHT22;6764;53.250;10.410;2023-01-09T11:30:57;9.40;99.90
13389;DHT22;6764;53.250;10.410;2023-01-09T11:33:26;9.50;99.90
13389;DHT22;6764;53.250;10.410;2023-01-09T11:38:48;9.30;99.90
13389;DHT22;6764;53.250;10.410;2023-01-09T11:41:26;9.40;99.90
13389;DHT22;6764;53.250;10.410;2023-01-09T11:43:54;9.60;99.90
13389;DHT22;6764;53.250;10.410;2023-01-09T11:46:40;9.70;99.90
13389;DHT22;6764;53.250;10.410;2023-01-09T11:51:40;9.80;99.90
13389;DHT22;6764;53.250;10.410;2023-01-09T11:54:35;9.70;99.90
13389;DHT22;6764;53.250;10.410;2023-01-09T11:57:02;9.80;99.90
13389;DHT22;6764;53.250;10.410;2023-01-09T11:59:29;9.80;99.90
13389;DHT22;6764;53.250;10.410;2023-01-09T12:10:48;9.50;99.90
13389;DHT22;6764;53.250;10.410;2023-01-09T12:16:13;9.40;99.90
13389;DHT22;6764;53.250;10.410;2023-01-09T12:28:10;9.50;99.90
13389;DHT22;6764;53.250;10.410;2023-01-09T12:38:55;9.70;99.90
13389;DHT22;6764;53.250;10.410;2023-01-09T12:41:32;9.80;99.90
13389;DHT22;6764;53.250;10.410;2023-01-09T12:50:13;10.00;99.90
13389;DHT22;6764;53.250;10.410;2023-01-09T12:53:00;10.10;99.90
13389;DHT22;6764;53.250;10.410;2023-01-09T12:55:35;10.10;99.90
13389;DHT22;6764;53.250;10.410;2023-01-09T13:01:04;10.10;99.90
13389;DHT22;6764;53.250;10.410;2023-01-09T13:03:38;10.20;99.90
13389;DHT22;6764;53.250;10.410;2023-01-09T13:06:07;10.10;99.90
13389;DHT22;6764;53.250;10.410;2023-01-09T13:08:43;10.10;99.90
13389;DHT22;6764;53.250;10.410;2023-01-09T13:11:15;10.20;99.90
13389;DHT22;6764;53.250;10.410;2023-01-09T13:16:45;10.20;99.90
13389;DHT22;6764;53.250;10.410;2023-01-09T13:19:17;10.20;99.90
13389;DHT22;6764;53.250;10.410;2023-01-09T13:21:46;10.10;99.90
13389;DHT22;6764;53.250;10.410;2023-01-09T13:27:04;10.00;99.90
13389;DHT22;6764;53.250;10.410;2023-01-09T13:29:36;10.00;99.90
13389;DHT22;6764;53.250;10.410;2023-01-09T13:34:46;10.00;99.90
13389;DHT22;6764;53.250;10.410;2023-01-09T13:37:28;9.90;99.90
13389;DHT22;6764;53.250;10.410;2023-01-09T13:40:04;9.90;99.90
13389;DHT22;6764;53.250;10.410;2023-01-09T13:42:31;9.90;99.90
13389;DHT22;6764;53.250;10.410;2023-01-09T13:45:24;9.90;99.90
13389;DHT22;6764;53.250;10.410;2023-01-09T13:50:40;10.00;99.90
13389;DHT22;6764;53.250;10.410;2023-01-09T13:58:23;9.90;99.90
13389;DHT22;6764;53.250;10.410;2023-01-09T14:00:51;9.90;99.90
13389;DHT22;6764;53.250;10.410;2023-01-09T14:08:18;10.00;99.90
13389;DHT22;6764;53.250;10.410;2023-01-09T14:10:55;10.00;99.90
13389;DHT22;6764;53.250;10.410;2023-01-09T14:13:42;9.90;99.90
13389;DHT22;6764;53.250;10.410;2023-01-09T14:19:06;10.00;99.90
13389;DHT22;6764;53.250;10.410;2023-01-09T14:22:02;9.90;99.90
13389;DHT22;6764;53.250;10.410;2023-01-09T14:24:39;9.90;99.90
13389;DHT22;6764;53.250;10.410;2023-01-09T14:30:26;9.80;99.90
13389;DHT22;6764;53.250;10.410;2023-01-09T14:35:40;9.80;99.90
13389;DHT22;6764;53.250;10.410;2023-01-09T14:40:55;9.80;99.90
13389;DHT22;6764;53.250;10.410;2023-01-09T14:44:18;9.90;99.90
13389;DHT22;6764;53.250;10.410;2023-01-09T14:46:17;9.80;99.90
13389;DHT22;6764;53.250;10.410;2023-01-09T14:49:06;9.70;99.90
13389;DHT22;6764;53.250;10.410;2023-01-09T14:51:37;9.70;99.90
13389;DHT22;6764;53.250;10.410;2023-01-09T14:54:29;9.70;99.90
13389;DHT22;6764;53.250;10.410;2023-01-09T14:56:56;9.70;99.90
13389;DHT22;6764;53.250;10.410;2023-01-09T14:59:21;9.70;99.90
13389;DHT22;6764;53.250;10.410;2023-01-09T15:01:48;9.70;99.90
13389;DHT22;6764;53.250;10.410;2023-01-09T15:04:28;9.70;99.90
13389;DHT22;6764;53.250;10.410;2023-01-09T15:06:56;9.60;99.90
13389;DHT22;6764;53.250;10.410;2023-01-09T15:09:26;9.70;99.90
13389;DHT22;6764;53.250;10.410;2023-01-09T15:12:02;9.60;99.90
13389;DHT22;6764;53.250;10.410;2023-01-09T15:14:40;9.60;99.90
13389;DHT22;6764;53.250;10.410;2023-01-09T15:17:20;9.60;99.90
13389;DHT22;6764;53.250;10.410;2023-01-09T15:19:46;9.60;99.90
13389;DHT22;6764;53.250;10.410;2023-01-09T15:22:35;9.60;99.90
13389;DHT22;6764;53.250;10.410;2023-01-09T15:25:29;9.60;99.90
13389;DHT22;6764;53.250;10.410;2023-01-09T15:27:57;9.70;99.90
13389;DHT22;6764;53.250;10.410;2023-01-09T15:30:29;9.60;99.90
13389;DHT22;6764;53.250;10.410;2023-01-09T15:33:12;9.60;99.90
13389;DHT22;6764;53.250;10.410;2023-01-09T15:35:46;9.60;99.90
13389;DHT22;6764;53.250;10.410;2023-01-09T15:38:21;9.60;99.90
13389;DHT22;6764;53.250;10.410;2023-01-09T15:41:05;9.60;99.90
13389;DHT22;6764;53.250;10.410;2023-01-09T15:43:33;9.60;99.90
13389;DHT22;6764;53.250;10.410;2023-01-09T15:46:01;9.80;99.90
13389;DHT22;6764;53.250;10.410;2023-01-09T15:48:34;9.60;99.90
13389;DHT22;6764;53.250;10.410;2023-01-09T15:51:06;9.50;99.90
13389;DHT22;6764;53.250;10.410;2023-01-09T15:53:35;9.40;99.90
13389;DHT22;6764;53.250;10.410;2023-01-09T15:56:11;9.30;99.90
13389;DHT22;6764;53.250;10.410;2023-01-09T15:58:42;9.20;99.90
13389;DHT22;6764;53.250;10.410;2023-01-09T16:04:02;9.20;99.90
13389;DHT22;6764;53.250;10.410;2023-01-09T16:06:31;9.20;99.90
13389;DHT22;6764;53.250;10.410;2023-01-09T16:09:00;9.20;99.90
13389;DHT22;6764;53.250;10.410;2023-01-09T16:11:27;9.20;99.90
13389;DHT22;6764;53.250;10.410;2023-01-09T16:13:57;9.10;99.90
13389;DHT22;6764;53.250;10.410;2023-01-09T16:16:29;9.20;99.90
13389;DHT22;6764;53.250;10.410;2023-01-09T16:18:56;9.20;99.90
13389;DHT22;6764;53.250;10.410;2023-01-09T16:23:56;9.20;99.90
13389;DHT22;6764;53.250;10.410;2023-01-09T16:26:25;9.20;99.90
13389;DHT22;6764;53.250;10.410;2023-01-09T16:28:52;9.20;99.90
13389;DHT22;6764;53.250;10.410;2023-01-09T16:31:28;9.10;99.90
13389;DHT22;6764;53.250;10.410;2023-01-09T16:34:02;9.10;99.90
13389;DHT22;6764;53.250;10.410;2023-01-09T16:36:29;9.00;99.90
13389;DHT22;6764;53.250;10.410;2023-01-09T16:38:55;9.00;99.90
13389;DHT22;6764;53.250;10.410;2023-01-09T16:41:21;9.00;99.90
13389;DHT22;6764;53.250;10.410;2023-01-09T16:44:07;9.00;99.90
13389;DHT22;6764;53.250;10.410;2023-01-09T16:46:38;9.00;99.90
13389;DHT22;6764;53.250;10.410;2023-01-09T16:49:20;9.00;99.90
13389;DHT22;6764;53.250;10.410;2023-01-09T16:51:48;9.00;99.90
13389;DHT22;6764;53.250;10.410;2023-01-09T16:54:14;9.00;99.90
13389;DHT22;6764;53.250;10.410;2023-01-09T16:56:43;9.00;99.90
13389;DHT22;6764;53.250;10.410;2023-01-09T16:59:22;8.90;99.90
13389;DHT22;6764;53.250;10.410;2023-01-09T17:01:51;8.90;99.90
13389;DHT22;6764;53.250;10.410;2023-01-09T17:04:18;8.90;99.90
13389;DHT22;6764;53.250;10.410;2023-01-09T17:06:45;8.90;99.90
13389;DHT22;6764;53.250;10.410;2023-01-09T17:09:14;8.90;99.90
13389;DHT22;6764;53.250;10.410;2023-01-09T17:11:42;8.90;99.90
13389;DHT22;6764;53.250;10.410;2023-01-09T17:14:12;9.00;99.90
13389;DHT22;6764;53.250;10.410;2023-01-09T17:16:38;9.00;99.90
13389;DHT22;6764;53.250;10.410;2023-01-09T17:19:05;9.00;99.90
13389;DHT22;6764;53.250;10.410;2023-01-09T17:21:31;9.10;99.90
13389;DHT22;6764;53.250;10.410;2023-01-09T17:23:58;9.10;99.90
13389;DHT22;6764;53.250;10.410;2023-01-09T17:26:45;9.00;99.90
13389;DHT22;6764;53.250;10.410;2023-01-09T17:29:30;9.00;99.90
13389;DHT22;6764;53.250;10.410;2023-01-09T17:31:57;9.00;99.90
13389;DHT22;6764;53.250;10.410;2023-01-09T17:34:23;9.00;99.90
13389;DHT22;6764;53.250;10.410;2023-01-09T17:36:48;9.00;99.90
13389;DHT22;6764;53.250;10.410;2023-01-09T17:39:16;9.00;99.90
13389;DHT22;6764;53.250;10.410;2023-01-09T17:41:42;8.90;99.90
13389;DHT22;6764;53.250;10.410;2023-01-09T17:44:09;8.90;99.90
13389;DHT22;6764;53.250;10.410;2023-01-09T17:46:38;8.80;99.90
13389;DHT22;6764;53.250;10.410;2023-01-09T17:49:08;8.80;99.90
13389;DHT22;6764;53.250;10.410;2023-01-09T17:51:34;8.80;99.90
13389;DHT22;6764;53.250;10.410;2023-01-09T17:53:59;8.80;99.90
13389;DHT22;6764;53.250;10.410;2023-01-09T17:56:32;8.80;99.90
13389;DHT22;6764;53.250;10.410;2023-01-09T17:58:59;8.80;99.90
13389;DHT22;6764;53.250;10.410;2023-01-09T18:01:24;8.80;99.90
13389;DHT22;6764;53.250;10.410;2023-01-09T18:03:50;8.80;99.90
13389;DHT22;6764;53.250;10.410;2023-01-09T18:06:19;8.80;99.90
13389;DHT22;6764;53.250;10.410;2023-01-09T18:08:45;8.90;99.90
13389;DHT22;6764;53.250;10.410;2023-01-09T18:11:13;8.80;99.90
13389;DHT22;6764;53.250;10.410;2023-01-09T18:13:42;8.80;99.90
13389;DHT22;6764;53.250;10.410;2023-01-09T18:16:12;8.80;99.90
13389;DHT22;6764;53.250;10.410;2023-01-09T18:18:38;8.80;99.90
13389;DHT22;6764;53.250;10.410;2023-01-09T18:21:05;8.80;99.90
13389;DHT22;6764;53.250;10.410;2023-01-09T18:23:31;8.80;99.90
13389;DHT22;6764;53.250;10.410;2023-01-09T18:25:56;8.80;99.90
13389;DHT22;6764;53.250;10.410;2023-01-09T18:28:22;8.80;99.90